Time;durP1;ratioP1;P1;durP2;ratioP2;P2;SDS_P1;SDS_P2;PMS_P1;PMS_P2;Temp;Humidity;BMP_temperature;BMP_pressure;BME280_temperature;BME280_humidity;BME280_pressure;Samples;Min_cycle;Max_cycle;Signal;HPM_P1;HPM_P2
2023/04/27 00:00:56;;;;;;;8.38;6.95;;;;;;;;;;5114480;28;20027;-82
2023/04/27 00:03:21;;;;;;;9.82;7.60;;;;;;;;;;5114529;28;20517;-81
2023/04/27 00:05:46;;;;;;;8.45;7.28;;;;;;;;;;5114827;28;20023;-81
2023/04/27 00:08:12;;;;;;;9.65;7.28;;;;;;;;;;5096171;28;20449;-82
2023/04/27 00:10:37;;;;;;;9.27;7.22;;;;;;;;;;5114684;28;20027;-82
2023/04/27 00:13:02;;;;;;;9.43;6.85;;;;;;;;;;5114917;28;20039;-82
2023/04/27 00:15:28;;;;;;;10.48;7.13;;;;;;;;;;5114384;28;20051;-82
2023/04/27 00:17:54;;;;;;;10.68;6.70;;;;;;;;;;5095974;28;20031;-82
2023/04/27 00:20:20;;;;;;;8.05;6.60;;;;;;;;;;5062343;28;20031;-82
2023/04/27 00:22:45;;;;;;;8.55;6.88;;;;;;;;;;5096060;28;20032;-82
2023/04/27 00:25:11;;;;;;;8.90;6.70;;;;;;;;;;5113958;28;20034;-81
2023/04/27 00:27:36;;;;;;;8.27;6.43;;;;;;;;;;5114004;28;20023;-81
2023/04/27 00:30:02;;;;;;;8.98;6.70;;;;;;;;;;5095864;28;20477;-80
2023/04/27 00:32:27;;;;;;;9.02;6.68;;;;;;;;;;5114054;28;20028;-82
2023/04/27 00:34:52;;;;;;;10.40;6.65;;;;;;;;;;5095689;28;20024;-82
2023/04/27 00:37:18;;;;;;;8.57;6.15;;;;;;;;;;5079085;28;20032;-82
2023/04/27 00:39:43;;;;;;;7.03;5.75;;;;;;;;;;5095791;28;20032;-83
2023/04/27 00:42:12;;;;;;;8.50;5.90;;;;;;;;;;5114340;28;20074;-82
2023/04/27 00:44:38;;;;;;;8.73;5.88;;;;;;;;;;5096458;28;20066;-82
2023/04/27 00:47:04;;;;;;;6.97;5.63;;;;;;;;;;5113661;28;20028;-81
2023/04/27 00:49:29;;;;;;;6.78;5.50;;;;;;;;;;5095381;28;20051;-82
2023/04/27 00:51:55;;;;;;;6.93;5.57;;;;;;;;;;5113861;28;20028;-82
2023/04/27 00:54:21;;;;;;;5.95;4.85;;;;;;;;;;5095581;28;20378;-82
2023/04/27 00:56:48;;;;;;;6.40;4.90;;;;;;;;;;5095522;28;20024;-82
2023/04/27 00:59:14;;;;;;;5.28;4.78;;;;;;;;;;5079006;28;20103;-81
2023/04/27 01:01:40;;;;;;;5.75;4.95;;;;;;;;;;5078849;28;20104;-81
2023/04/27 01:04:05;;;;;;;8.40;5.43;;;;;;;;;;5095145;28;20577;-82
2023/04/27 01:06:30;;;;;;;6.25;5.13;;;;;;;;;;5095335;28;20036;-82
2023/04/27 01:08:56;;;;;;;6.38;4.93;;;;;;;;;;5095290;28;20031;-82
2023/04/27 01:11:22;;;;;;;5.60;4.82;;;;;;;;;;5113898;28;20466;-82
2023/04/27 01:13:47;;;;;;;6.00;4.63;;;;;;;;;;5095265;28;20085;-81
2023/04/27 01:16:13;;;;;;;6.63;4.50;;;;;;;;;;5095307;28;20031;-81
2023/04/27 01:18:39;;;;;;;4.90;4.15;;;;;;;;;;5095867;28;20381;-82
2023/04/27 01:21:05;;;;;;;4.97;4.30;;;;;;;;;;5095277;28;20030;-81
2023/04/27 01:23:30;;;;;;;6.75;3.97;;;;;;;;;;5078396;28;20031;-81
2023/04/27 01:25:56;;;;;;;5.43;4.00;;;;;;;;;;5095199;28;20570;-81
2023/04/27 01:28:21;;;;;;;7.57;3.95;;;;;;;;;;5078194;28;20035;-82
2023/04/27 01:30:46;;;;;;;5.25;4.10;;;;;;;;;;5078247;28;20024;-82
2023/04/27 01:33:12;;;;;;;6.53;4.20;;;;;;;;;;5095477;28;20035;-81
2023/04/27 01:35:37;;;;;;;5.88;3.80;;;;;;;;;;5078502;28;20084;-82
2023/04/27 01:38:02;;;;;;;6.93;3.85;;;;;;;;;;5095052;28;20038;-82
2023/04/27 01:40:28;;;;;;;4.30;3.75;;;;;;;;;;5078203;28;20040;-82
2023/04/27 01:42:53;;;;;;;4.55;3.30;;;;;;;;;;5078236;28;20110;-82
2023/04/27 01:45:19;;;;;;;5.78;3.47;;;;;;;;;;5101306;28;20039;-81
2023/04/27 01:47:45;;;;;;;5.35;3.63;;;;;;;;;;5081694;28;20027;-82
2023/04/27 01:50:10;;;;;;;3.88;3.40;;;;;;;;;;5115457;28;20388;-82
2023/04/27 01:52:35;;;;;;;5.28;3.85;;;;;;;;;;5115288;28;20031;-82
2023/04/27 01:55:01;;;;;;;4.05;3.08;;;;;;;;;;5115932;28;20027;-81
2023/04/27 01:57:26;;;;;;;4.53;3.40;;;;;;;;;;5134823;27;20051;-81
2023/04/27 01:59:52;;;;;;;6.10;2.90;;;;;;;;;;5137766;27;20031;-81
2023/04/27 02:02:17;;;;;;;4.60;3.30;;;;;;;;;;5119219;27;20034;-82
2023/04/27 02:04:43;;;;;;;3.72;3.15;;;;;;;;;;5119064;27;20102;-82
2023/04/27 02:07:09;;;;;;;3.97;2.90;;;;;;;;;;5102090;27;20038;-82
2023/04/27 02:09:35;;;;;;;3.03;2.63;;;;;;;;;;5119312;27;20390;-82
2023/04/27 02:12:01;;;;;;;3.85;3.08;;;;;;;;;;5119189;27;20035;-81
2023/04/27 02:14:26;;;;;;;4.07;2.80;;;;;;;;;;5105255;27;20071;-82
2023/04/27 02:16:52;;;;;;;4.35;3.03;;;;;;;;;;5139442;27;20438;-82
2023/04/27 02:19:17;;;;;;;5.40;2.70;;;;;;;;;;5157920;27;20150;-81
2023/04/27 02:21:43;;;;;;;3.22;2.70;;;;;;;;;;5157976;27;20046;-81
2023/04/27 02:24:08;;;;;;;4.97;2.83;;;;;;;;;;5158261;27;20027;-82
2023/04/27 02:26:34;;;;;;;3.67;2.42;;;;;;;;;;5139215;27;20023;-82
2023/04/27 02:28:59;;;;;;;3.80;2.90;;;;;;;;;;5139082;27;20458;-82
2023/04/27 02:31:25;;;;;;;5.78;2.85;;;;;;;;;;5121926;27;20075;-81
2023/04/27 02:33:51;;;;;;;2.60;2.33;;;;;;;;;;5139253;27;20065;-81
2023/04/27 02:36:16;;;;;;;3.38;2.50;;;;;;;;;;5157848;27;20494;-81
2023/04/27 02:38:41;;;;;;;3.60;2.70;;;;;;;;;;5121748;27;20034;-81
2023/04/27 02:41:07;;;;;;;3.42;2.42;;;;;;;;;;5139053;27;20050;-81
2023/04/27 02:43:32;;;;;;;3.20;2.20;;;;;;;;;;5157467;27;20446;-81
2023/04/27 02:46:02;;;;;;;4.30;2.50;;;;;;;;;;5138942;27;20095;-82
2023/04/27 02:48:27;;;;;;;2.47;2.15;;;;;;;;;;5139232;27;20026;-82
2023/04/27 02:50:53;;;;;;;19.60;2.50;;;;;;;;;;5121583;27;20091;-81
2023/04/27 02:53:18;;;;;;;4.55;2.33;;;;;;;;;;5138796;27;20030;-81
2023/04/27 02:55:49;;;;;;;3.17;2.35;;;;;;;;;;5157513;27;20026;-81
2023/04/27 02:58:15;;;;;;;4.53;2.63;;;;;;;;;;5139148;27;20022;-80
2023/04/27 03:00:41;;;;;;;3.40;2.47;;;;;;;;;;5138602;27;20110;-81
2023/04/27 03:03:07;;;;;;;3.25;2.33;;;;;;;;;;5121474;27;20029;-80
2023/04/27 03:05:33;;;;;;;5.90;2.30;;;;;;;;;;5157042;27;20026;-81
2023/04/27 03:07:58;;;;;;;4.13;2.45;;;;;;;;;;5140402;27;20357;-80
2023/04/27 03:10:24;;;;;;;2.28;2.08;;;;;;;;;;5121786;27;20054;-81
2023/04/27 03:12:49;;;;;;;2.78;2.30;;;;;;;;;;5125507;27;20050;-81
2023/04/27 03:15:15;;;;;;;2.63;2.03;;;;;;;;;;5122687;27;20031;-81
2023/04/27 03:17:40;;;;;;;3.80;2.30;;;;;;;;;;5141014;27;20027;-81
2023/04/27 03:20:09;;;;;;;3.00;2.25;;;;;;;;;;5157833;27;20484;-80
2023/04/27 03:22:35;;;;;;;4.97;2.20;;;;;;;;;;5158181;27;20489;-80
2023/04/27 03:25:00;;;;;;;4.97;2.08;;;;;;;;;;5162669;27;20030;-80
2023/04/27 03:27:26;;;;;;;3.05;2.13;;;;;;;;;;5110555;27;20109;-81
2023/04/27 03:29:54;;;;;;;3.20;1.80;;;;;;;;;;5107043;27;20030;-81
2023/04/27 03:32:20;;;;;;;4.78;2.20;;;;;;;;;;5159004;27;20023;-81
2023/04/27 03:34:45;;;;;;;2.50;2.08;;;;;;;;;;5138932;27;20019;-81
2023/04/27 03:37:11;;;;;;;3.55;1.75;;;;;;;;;;5138416;27;20050;-80
2023/04/27 03:39:36;;;;;;;2.20;1.85;;;;;;;;;;5138752;27;20113;-80
2023/04/27 03:42:02;;;;;;;3.88;2.28;;;;;;;;;;5138140;27;20045;-81
2023/04/27 03:44:27;;;;;;;2.53;1.80;;;;;;;;;;5137907;27;20484;-80
2023/04/27 03:46:53;;;;;;;2.17;1.98;;;;;;;;;;5137621;27;20061;-80
2023/04/27 03:49:18;;;;;;;2.85;2.10;;;;;;;;;;5156326;27;20059;-80
2023/04/27 03:51:44;;;;;;;3.28;1.88;;;;;;;;;;5137640;27;20110;-80
2023/04/27 03:54:09;;;;;;;2.83;1.90;;;;;;;;;;5120685;27;20026;-80
2023/04/27 03:56:35;;;;;;;3.42;1.95;;;;;;;;;;5137618;27;20027;-80
2023/04/27 03:59:02;;;;;;;3.17;2.40;;;;;;;;;;5138139;27;20034;-80
2023/04/27 04:01:27;;;;;;;4.53;2.10;;;;;;;;;;5137516;27;20034;-81
2023/04/27 04:03:53;;;;;;;4.93;2.10;;;;;;;;;;5121047;27;20389;-80
2023/04/27 04:06:18;;;;;;;3.50;1.90;;;;;;;;;;5156181;27;20072;-81
2023/04/27 04:08:43;;;;;;;3.58;1.90;;;;;;;;;;5156488;27;20533;-80
2023/04/27 04:11:09;;;;;;;3.15;1.80;;;;;;;;;;5120231;27;20023;-81
2023/04/27 04:13:35;;;;;;;3.45;2.13;;;;;;;;;;5155981;27;20027;-80
2023/04/27 04:16:05;;;;;;;2.60;2.10;;;;;;;;;;5137333;27;20079;-80
2023/04/27 04:18:31;;;;;;;3.33;2.45;;;;;;;;;;5136929;27;20465;-82
2023/04/27 04:20:56;;;;;;;2.75;1.95;;;;;;;;;;5136220;27;20048;-81
2023/04/27 04:23:22;;;;;;;4.63;2.00;;;;;;;;;;5102840;27;20034;-81
2023/04/27 04:25:47;;;;;;;2.45;1.90;;;;;;;;;;5155462;27;20027;-81
2023/04/27 04:28:13;;;;;;;2.80;1.70;;;;;;;;;;5137472;27;20469;-81
2023/04/27 04:30:39;;;;;;;2.75;1.85;;;;;;;;;;5156272;27;20031;-81
2023/04/27 04:33:04;;;;;;;2.42;1.90;;;;;;;;;;5157336;27;20019;-80
2023/04/27 04:35:31;;;;;;;2.10;1.80;;;;;;;;;;5137572;27;20393;-81
2023/04/27 04:37:57;;;;;;;2.90;2.00;;;;;;;;;;5140075;27;20050;-81
2023/04/27 04:40:23;;;;;;;3.10;1.98;;;;;;;;;;5125031;27;20060;-81
2023/04/27 04:42:48;;;;;;;2.55;1.90;;;;;;;;;;5121693;27;20411;-81
2023/04/27 04:45:14;;;;;;;3.08;1.92;;;;;;;;;;5120144;27;20042;-80
2023/04/27 04:47:40;;;;;;;3.03;1.90;;;;;;;;;;5137225;27;20461;-80
2023/04/27 04:50:07;;;;;;;3.28;2.25;;;;;;;;;;5120136;27;20109;-79
2023/04/27 04:52:33;;;;;;;2.50;2.10;;;;;;;;;;5156117;27;20169;-80
2023/04/27 04:54:58;;;;;;;3.08;1.83;;;;;;;;;;5136768;27;20043;-80
2023/04/27 04:57:23;;;;;;;3.38;2.20;;;;;;;;;;5155430;27;20038;-80
2023/04/27 04:59:49;;;;;;;3.28;1.88;;;;;;;;;;5102612;27;20091;-80
2023/04/27 05:02:15;;;;;;;2.55;1.80;;;;;;;;;;5119833;27;20065;-80
2023/04/27 05:04:40;;;;;;;3.53;2.15;;;;;;;;;;5119352;27;20023;-80
2023/04/27 05:07:05;;;;;;;3.45;1.95;;;;;;;;;;5136961;27;20023;-80
2023/04/27 05:09:31;;;;;;;3.03;2.00;;;;;;;;;;5119814;27;20030;-80
2023/04/27 05:11:56;;;;;;;2.17;1.98;;;;;;;;;;5119290;27;20031;-80
2023/04/27 05:14:22;;;;;;;3.28;2.05;;;;;;;;;;5136570;27;20378;-80
2023/04/27 05:16:48;;;;;;;3.03;1.98;;;;;;;;;;5155325;27;20026;-81
2023/04/27 05:19:17;;;;;;;3.65;1.90;;;;;;;;;;5136545;27;20500;-80
2023/04/27 05:21:45;;;;;;;7.03;1.98;;;;;;;;;;5155226;27;20461;-80
2023/04/27 05:24:11;;;;;;;3.45;2.00;;;;;;;;;;5137147;27;20109;-80
2023/04/27 05:26:37;;;;;;;5.00;2.10;;;;;;;;;;5136896;27;20022;-81
2023/04/27 05:29:02;;;;;;;3.28;2.15;;;;;;;;;;5136162;27;20022;-81
2023/04/27 05:31:28;;;;;;;3.05;2.28;;;;;;;;;;5155174;27;20053;-81
2023/04/27 05:33:53;;;;;;;3.63;2.00;;;;;;;;;;5139978;27;20076;-81
2023/04/27 05:36:19;;;;;;;4.07;1.95;;;;;;;;;;5123384;27;20037;-81
2023/04/27 05:38:44;;;;;;;2.80;1.95;;;;;;;;;;5140490;27;20035;-81
2023/04/27 05:41:09;;;;;;;9.05;2.20;;;;;;;;;;5140427;27;20026;-81
2023/04/27 05:43:37;;;;;;;3.60;1.90;;;;;;;;;;5140281;27;20030;-80
2023/04/27 05:46:03;;;;;;;4.20;2.20;;;;;;;;;;5140006;27;20047;-81
2023/04/27 05:48:28;;;;;;;6.05;2.38;;;;;;;;;;5140554;27;20026;-82
2023/04/27 05:51:00;;;;;;;6.28;2.55;;;;;;;;;;5140567;27;20030;-82
2023/04/27 05:53:26;;;;;;;4.93;2.25;;;;;;;;;;5158841;27;20461;-80
2023/04/27 05:55:51;;;;;;;4.40;2.50;;;;;;;;;;5140183;27;20033;-79
2023/04/27 05:58:17;;;;;;;5.03;2.42;;;;;;;;;;5158553;27;20039;-81
2023/04/27 06:00:42;;;;;;;6.18;2.50;;;;;;;;;;5122993;27;20027;-79
2023/04/27 06:03:08;;;;;;;5.50;2.45;;;;;;;;;;5159051;27;20023;-79
2023/04/27 06:05:33;;;;;;;4.45;2.90;;;;;;;;;;5139750;27;20037;-79
2023/04/27 06:07:59;;;;;;;4.00;2.40;;;;;;;;;;5140033;27;20033;-79
2023/04/27 06:10:24;;;;;;;9.98;2.58;;;;;;;;;;5158370;27;20030;-79
2023/04/27 06:12:50;;;;;;;4.00;2.05;;;;;;;;;;5158518;27;20034;-79
2023/04/27 06:15:15;;;;;;;3.67;2.08;;;;;;;;;;5139968;27;20105;-79
2023/04/27 06:17:42;;;;;;;4.82;2.20;;;;;;;;;;5121926;27;20023;-78
2023/04/27 06:20:08;;;;;;;5.28;2.58;;;;;;;;;;5139185;27;20025;-78
2023/04/27 06:22:37;;;;;;;4.88;2.28;;;;;;;;;;5121771;27;20015;-79
2023/04/27 06:25:06;;;;;;;3.40;1.90;;;;;;;;;;5138768;27;20034;-79
2023/04/27 06:27:32;;;;;;;4.18;2.17;;;;;;;;;;5138906;27;20037;-79
2023/04/27 06:29:58;;;;;;;7.82;1.90;;;;;;;;;;5138911;27;20026;-79
2023/04/27 06:32:23;;;;;;;2.83;1.80;;;;;;;;;;5122023;27;20033;-78
2023/04/27 06:34:49;;;;;;;5.40;2.15;;;;;;;;;;5122188;27;20030;-78
2023/04/27 06:37:16;;;;;;;5.38;2.20;;;;;;;;;;5139049;27;20067;-79
2023/04/27 06:39:42;;;;;;;4.35;2.08;;;;;;;;;;5139594;27;20477;-79
2023/04/27 06:42:08;;;;;;;2.92;1.67;;;;;;;;;;5139235;27;20039;-79
2023/04/27 06:44:33;;;;;;;3.35;2.00;;;;;;;;;;5138297;27;20034;-84
2023/04/27 06:46:58;;;;;;;4.72;2.17;;;;;;;;;;5141473;27;20051;-82
2023/04/27 06:49:24;;;;;;;8.63;1.90;;;;;;;;;;5139871;27;20023;-82
2023/04/27 06:51:49;;;;;;;15.52;2.30;;;;;;;;;;5140978;27;20034;-82
2023/04/27 06:54:15;;;;;;;4.53;2.00;;;;;;;;;;5139590;27;20023;-82
2023/04/27 06:56:41;;;;;;;4.45;1.95;;;;;;;;;;5121978;27;20018;-83
2023/04/27 06:59:07;;;;;;;3.22;1.83;;;;;;;;;;5139098;27;20054;-82
2023/04/27 07:01:32;;;;;;;3.45;1.75;;;;;;;;;;5122137;27;20083;-82
2023/04/27 07:03:58;;;;;;;5.13;1.90;;;;;;;;;;5139428;27;20030;-82
2023/04/27 07:06:24;;;;;;;10.75;1.95;;;;;;;;;;5157632;27;20485;-86
2023/04/27 07:08:50;;;;;;;8.43;1.60;;;;;;;;;;5139360;27;20034;-86
2023/04/27 07:11:16;;;;;;;6.20;1.70;;;;;;;;;;5138957;27;20034;-86
2023/04/27 07:13:42;;;;;;;5.43;1.90;;;;;;;;;;5139403;27;20031;-86
2023/04/27 07:16:07;;;;;;;4.80;1.70;;;;;;;;;;5158236;27;20030;-85
2023/04/27 07:18:32;;;;;;;5.18;2.35;;;;;;;;;;5157299;27;20037;-83
2023/04/27 07:20:58;;;;;;;7.78;2.17;;;;;;;;;;5159117;27;20537;-82
2023/04/27 07:23:23;;;;;;;6.60;1.90;;;;;;;;;;5157326;27;20056;-86
2023/04/27 07:25:49;;;;;;;4.18;2.10;;;;;;;;;;5105143;27;20022;-86
2023/04/27 07:28:15;;;;;;;5.82;2.03;;;;;;;;;;5121543;27;20022;-86
2023/04/27 07:30:41;;;;;;;5.18;2.20;;;;;;;;;;5121997;27;20027;-87
2023/04/27 07:33:07;;;;;;;6.00;2.30;;;;;;;;;;5121738;27;20030;-87
2023/04/27 07:35:33;;;;;;;5.65;2.35;;;;;;;;;;5138826;27;20070;-87
2023/04/27 07:38:00;;;;;;;8.13;2.50;;;;;;;;;;5122233;27;20033;-87
2023/04/27 07:40:26;;;;;;;8.30;2.72;;;;;;;;;;5104797;27;20027;-86
2023/04/27 07:42:52;;;;;;;4.32;2.10;;;;;;;;;;5138478;27;20037;-88
2023/04/27 07:45:17;;;;;;;5.63;2.25;;;;;;;;;;5121261;27;20042;-88
2023/04/27 07:47:43;;;;;;;14.15;2.55;;;;;;;;;;5138708;27;20054;-82
2023/04/27 07:50:09;;;;;;;5.65;2.30;;;;;;;;;;5156831;27;20023;-83
2023/04/27 07:52:34;;;;;;;23.70;6.18;;;;;;;;;;5120751;27;20106;-84
2023/04/27 07:55:00;;;;;;;35.78;6.72;;;;;;;;;;5138404;27;20089;-88
2023/04/27 07:57:26;;;;;;;24.63;5.38;;;;;;;;;;5121832;27;20045;-88
2023/04/27 07:59:51;;;;;;;23.75;5.40;;;;;;;;;;5138946;27;20019;-88
2023/04/27 08:02:17;;;;;;;18.10;4.78;;;;;;;;;;5156422;27;20102;-86
2023/04/27 08:04:42;;;;;;;19.85;4.70;;;;;;;;;;5158668;27;20054;-86
2023/04/27 08:07:08;;;;;;;15.43;4.22;;;;;;;;;;5156891;27;20034;-87
2023/04/27 08:09:33;;;;;;;13.10;4.10;;;;;;;;;;5138152;27;20503;-85
2023/04/27 08:11:58;;;;;;;13.93;4.40;;;;;;;;;;5138552;27;20095;-90
2023/04/27 08:14:24;;;;;;;16.45;4.00;;;;;;;;;;5156540;27;20030;-89
2023/04/27 08:16:50;;;;;;;12.25;3.80;;;;;;;;;;5121127;27;20396;-89
2023/04/27 08:19:17;;;;;;;13.07;4.05;;;;;;;;;;5138398;27;20540;-89
2023/04/27 08:21:43;;;;;;;13.90;3.63;;;;;;;;;;5121034;27;20160;-90
2023/04/27 08:24:08;;;;;;;11.00;3.30;;;;;;;;;;5138348;27;20113;-90
2023/04/27 08:26:34;;;;;;;12.95;3.22;;;;;;;;;;5138216;27;20034;-90
2023/04/27 08:29:00;;;;;;;15.65;3.40;;;;;;;;;;5104229;27;20494;-85
2023/04/27 08:31:26;;;;;;;11.48;3.05;;;;;;;;;;5137631;27;20075;-89
2023/04/27 08:33:52;;;;;;;15.88;3.47;;;;;;;;;;5156310;27;20023;-90
2023/04/27 08:36:20;;;;;;;12.18;2.65;;;;;;;;;;5120641;27;20030;-88
2023/04/27 08:38:46;;;;;;;9.57;2.53;;;;;;;;;;5120636;27;20038;-88
2023/04/27 08:41:18;;;;;;;6.95;2.70;;;;;;;;;;5120371;27;20042;-88
2023/04/27 08:43:43;;;;;;;12.45;2.83;;;;;;;;;;5120510;27;20045;-90
2023/04/27 08:46:10;;;;;;;8.77;2.60;;;;;;;;;;5138495;27;20467;-86
2023/04/27 08:48:35;;;;;;;9.65;2.60;;;;;;;;;;5141729;27;20056;-88
2023/04/27 08:51:01;;;;;;;9.75;2.20;;;;;;;;;;5142955;27;20458;-88
2023/04/27 08:53:27;;;;;;;5.10;2.20;;;;;;;;;;5151544;27;20023;-89
2023/04/27 08:55:54;;;;;;;7.40;2.35;;;;;;;;;;5163789;27;20037;-87
2023/04/27 08:58:20;;;;;;;8.52;2.28;;;;;;;;;;5156085;27;20027;-87
2023/04/27 09:00:46;;;;;;;5.43;2.20;;;;;;;;;;5155974;27;20103;-86
2023/04/27 09:03:22;;;;;;;10.85;2.60;;;;;;;;;;5155527;27;20042;-86
2023/04/27 09:05:48;;;;;;;5.30;2.00;;;;;;;;;;5137388;27;20019;-86
2023/04/27 09:08:13;;;;;;;11.90;2.60;;;;;;;;;;5136085;27;20362;-83
2023/04/27 09:10:47;;;;;;;8.05;2.30;;;;;;;;;;5137565;27;20052;-83
2023/04/27 09:13:14;;;;;;;7.45;2.30;;;;;;;;;;5121177;27;20118;-83
2023/04/27 09:15:47;;;;;;;6.93;1.90;;;;;;;;;;5138163;27;20023;-83
2023/04/27 09:18:16;;;;;;;7.78;2.30;;;;;;;;;;5119873;27;20073;-83
2023/04/27 09:20:46;;;;;;;5.93;2.00;;;;;;;;;;5136833;27;20084;-83
2023/04/27 09:23:26;;;;;;;10.57;2.25;;;;;;;;;;5119640;27;20083;-84
2023/04/27 09:25:55;;;;;;;4.45;1.98;;;;;;;;;;5154848;27;20102;-82
2023/04/27 09:28:21;;;;;;;6.78;2.03;;;;;;;;;;5119573;27;20434;-84
2023/04/27 09:30:58;;;;;;;6.57;1.80;;;;;;;;;;5136467;27;20027;-82
2023/04/27 09:33:28;;;;;;;3.53;1.77;;;;;;;;;;5136380;27;20057;-82
2023/04/27 09:35:55;;;;;;;4.72;2.00;;;;;;;;;;5136427;27;20030;-82
2023/04/27 09:38:21;;;;;;;3.90;1.70;;;;;;;;;;5136391;27;20091;-82
2023/04/27 09:40:48;;;;;;;4.03;1.60;;;;;;;;;;5155113;27;20034;-83
2023/04/27 09:43:13;;;;;;;5.03;1.90;;;;;;;;;;5136603;27;20067;-82
2023/04/27 09:45:39;;;;;;;3.15;1.58;;;;;;;;;;5154691;27;20043;-83
2023/04/27 09:48:05;;;;;;;4.85;1.90;;;;;;;;;;5136136;27;20038;-83
2023/04/27 09:50:39;;;;;;;9.23;1.83;;;;;;;;;;5119036;27;20050;-83
2023/04/27 09:53:05;;;;;;;4.28;2.13;;;;;;;;;;5120395;27;20027;-85
2023/04/27 09:55:43;;;;;;;4.10;1.67;;;;;;;;;;5137566;27;20045;-85
2023/04/27 09:58:33;;;;;;;3.92;1.92;;;;;;;;;;5119299;27;20077;-85
2023/04/27 10:01:30;;;;;;;4.88;1.60;;;;;;;;;;5155160;27;20030;-84
2023/04/27 10:04:14;;;;;;;3.47;2.00;;;;;;;;;;5119163;27;20426;-85
2023/04/27 10:06:49;;;;;;;5.25;1.88;;;;;;;;;;5155128;27;20027;-87
2023/04/27 10:09:16;;;;;;;2.70;1.65;;;;;;;;;;5142185;27;20030;-86
2023/04/27 10:11:43;;;;;;;2.13;1.52;;;;;;;;;;5162010;27;20029;-85
2023/04/27 10:14:15;;;;;;;2.63;1.52;;;;;;;;;;5138659;27;20067;-86
2023/04/27 10:16:45;;;;;;;6.10;1.90;;;;;;;;;;5142920;27;20078;-86
2023/04/27 10:19:11;;;;;;;3.85;1.90;;;;;;;;;;5138644;27;20023;-86
2023/04/27 10:21:37;;;;;;;4.18;1.75;;;;;;;;;;5124180;27;20079;-86
2023/04/27 10:24:08;;;;;;;2.75;1.63;;;;;;;;;;5122804;27;20042;-86
2023/04/27 10:26:35;;;;;;;4.15;2.00;;;;;;;;;;5158260;27;20490;-86
2023/04/27 10:29:05;;;;;;;2.63;1.70;;;;;;;;;;5140672;27;20118;-86
2023/04/27 10:31:32;;;;;;;4.30;1.90;;;;;;;;;;5140784;27;20018;-86
2023/04/27 10:34:11;;;;;;;3.45;1.80;;;;;;;;;;5140815;27;20039;-85
2023/04/27 10:36:37;;;;;;;5.00;2.00;;;;;;;;;;5123312;27;20030;-86
2023/04/27 10:39:15;;;;;;;5.85;2.03;;;;;;;;;;5140318;27;20031;-85
2023/04/27 10:41:54;;;;;;;5.22;1.88;;;;;;;;;;5159168;27;20366;-83
2023/04/27 10:44:27;;;;;;;4.95;2.20;;;;;;;;;;5139112;27;20045;-84
2023/04/27 10:46:54;;;;;;;6.40;2.30;;;;;;;;;;5139309;27;20058;-85
2023/04/27 10:49:20;;;;;;;3.55;2.10;;;;;;;;;;5157530;27;20019;-85
2023/04/27 10:51:46;;;;;;;2.83;1.83;;;;;;;;;;5139376;27;20484;-86
2023/04/27 10:54:12;;;;;;;3.33;2.03;;;;;;;;;;5140729;27;20015;-84
2023/04/27 10:56:38;;;;;;;5.63;2.22;;;;;;;;;;5122967;27;20586;-85
2023/04/27 10:59:04;;;;;;;2.88;1.80;;;;;;;;;;5139059;27;20510;-85
2023/04/27 11:01:29;;;;;;;3.38;2.00;;;;;;;;;;5138812;27;20068;-83
2023/04/27 11:03:56;;;;;;;5.57;2.10;;;;;;;;;;5138904;27;20031;-84
2023/04/27 11:06:22;;;;;;;4.28;2.28;;;;;;;;;;5138639;27;20025;-84
2023/04/27 11:08:47;;;;;;;17.92;3.35;;;;;;;;;;5139213;27;20026;-86
2023/04/27 11:11:14;;;;;;;3.55;2.25;;;;;;;;;;5157153;27;20472;-84
2023/04/27 11:13:42;;;;;;;2.15;1.90;;;;;;;;;;5121331;27;20029;-85
2023/04/27 11:16:07;;;;;;;10.57;2.00;;;;;;;;;;5138773;27;20045;-86
2023/04/27 11:18:36;;;;;;;2.70;1.83;;;;;;;;;;5138311;27;20469;-85
2023/04/27 11:21:12;;;;;;;2.97;1.90;;;;;;;;;;5138450;27;20079;-85
2023/04/27 11:23:38;;;;;;;3.92;1.83;;;;;;;;;;5156943;27;20031;-83
2023/04/27 11:26:25;;;;;;;2.88;1.75;;;;;;;;;;5156906;27;20060;-82
2023/04/27 11:28:58;;;;;;;7.88;1.90;;;;;;;;;;5138963;27;20445;-80
2023/04/27 11:31:25;;;;;;;2.65;1.77;;;;;;;;;;5137861;27;20076;-83
2023/04/27 11:33:53;;;;;;;3.72;1.80;;;;;;;;;;5138373;27;20026;-82
2023/04/27 11:36:20;;;;;;;2.20;1.73;;;;;;;;;;5156632;27;20035;-81
2023/04/27 11:38:45;;;;;;;3.33;1.95;;;;;;;;;;5138039;27;20101;-81
2023/04/27 11:41:10;;;;;;;3.65;2.00;;;;;;;;;;5137910;27;20051;-82
2023/04/27 11:43:40;;;;;;;2.92;1.70;;;;;;;;;;5138373;27;20042;-82
2023/04/27 11:46:08;;;;;;;4.38;1.70;;;;;;;;;;5156377;27;20054;-82
2023/04/27 11:48:36;;;;;;;2.80;1.63;;;;;;;;;;5120835;27;20037;-82
2023/04/27 11:51:02;;;;;;;4.07;1.60;;;;;;;;;;5137811;27;20097;-80
2023/04/27 11:53:34;;;;;;;3.63;1.60;;;;;;;;;;5138314;27;20071;-82
2023/04/27 11:56:04;;;;;;;4.72;2.10;;;;;;;;;;5137611;27;20051;-82
2023/04/27 11:58:35;;;;;;;1.80;1.60;;;;;;;;;;5137755;27;20034;-83
2023/04/27 12:01:00;;;;;;;2.50;2.00;;;;;;;;;;5137653;27;20414;-81
2023/04/27 12:03:27;;;;;;;7.03;1.70;;;;;;;;;;5137771;27;20055;-82
2023/04/27 12:05:53;;;;;;;1.63;1.40;;;;;;;;;;5137405;27;20110;-81
2023/04/27 12:08:19;;;;;;;3.60;1.42;;;;;;;;;;5137485;27;20496;-82
2023/04/27 12:10:45;;;;;;;1.92;1.63;;;;;;;;;;5120152;27;20023;-83
2023/04/27 12:13:11;;;;;;;2.45;1.60;;;;;;;;;;5156086;27;20035;-82
2023/04/27 12:15:41;;;;;;;2.03;1.50;;;;;;;;;;5103154;27;20134;-81
2023/04/27 12:18:06;;;;;;;1.90;1.40;;;;;;;;;;5103622;27;20114;-82
2023/04/27 12:20:35;;;;;;;3.22;1.67;;;;;;;;;;5137309;27;20118;-81
2023/04/27 12:23:01;;;;;;;2.30;1.50;;;;;;;;;;5155664;27;20034;-82
2023/04/27 12:25:26;;;;;;;2.00;1.40;;;;;;;;;;5137018;27;20037;-82
2023/04/27 12:27:52;;;;;;;3.58;1.67;;;;;;;;;;5155568;27;20026;-82
2023/04/27 12:30:17;;;;;;;3.70;1.40;;;;;;;;;;5155602;27;20454;-82
2023/04/27 12:32:43;;;;;;;4.15;1.50;;;;;;;;;;5137047;27;20045;-81
2023/04/27 12:35:11;;;;;;;2.17;1.60;;;;;;;;;;5136808;27;20465;-81
2023/04/27 12:37:37;;;;;;;4.40;1.40;;;;;;;;;;5120097;27;20059;-81
2023/04/27 12:40:07;;;;;;;3.22;1.40;;;;;;;;;;5119709;27;20397;-81
2023/04/27 12:42:33;;;;;;;2.55;1.38;;;;;;;;;;5135871;27;20031;-81
2023/04/27 12:44:59;;;;;;;3.10;1.50;;;;;;;;;;5136626;27;20049;-81
2023/04/27 12:47:24;;;;;;;2.00;1.40;;;;;;;;;;5136712;27;20022;-81
2023/04/27 12:49:50;;;;;;;1.65;1.35;;;;;;;;;;5155147;27;20023;-81
2023/04/27 12:52:16;;;;;;;4.78;1.30;;;;;;;;;;5136654;27;20110;-81
2023/04/27 12:54:42;;;;;;;1.50;1.40;;;;;;;;;;5155514;27;20019;-81
2023/04/27 12:57:07;;;;;;;9.77;1.50;;;;;;;;;;5120490;27;20022;-81
2023/04/27 12:59:33;;;;;;;1.90;1.15;;;;;;;;;;5138222;27;20091;-81
2023/04/27 13:02:02;;;;;;;1.67;1.30;;;;;;;;;;5136760;27;20023;-81
2023/04/27 13:04:31;;;;;;;1.70;1.23;;;;;;;;;;5119139;27;20126;-81
2023/04/27 13:06:59;;;;;;;2.95;1.30;;;;;;;;;;5119517;27;20027;-81
2023/04/27 13:09:26;;;;;;;1.67;1.27;;;;;;;;;;5120420;27;20076;-80
2023/04/27 13:11:52;;;;;;;2.20;1.33;;;;;;;;;;5136437;27;20121;-81
2023/04/27 13:14:18;;;;;;;1.40;1.25;;;;;;;;;;5119427;27;20018;-82
2023/04/27 13:16:44;;;;;;;1.70;1.30;;;;;;;;;;5136398;27;20415;-81
2023/04/27 13:19:09;;;;;;;1.65;1.27;;;;;;;;;;5136266;27;20408;-80
2023/04/27 13:21:35;;;;;;;1.38;1.27;;;;;;;;;;5154823;27;20022;-81
2023/04/27 13:24:00;;;;;;;2.45;1.30;;;;;;;;;;5136226;27;20506;-81
2023/04/27 13:26:25;;;;;;;6.10;1.48;;;;;;;;;;5154757;27;20026;-81
2023/04/27 13:28:51;;;;;;;5.18;1.40;;;;;;;;;;5136319;27;20030;-80
2023/04/27 13:31:17;;;;;;;2.47;1.20;;;;;;;;;;5154986;27;20152;-80
2023/04/27 13:33:43;;;;;;;2.60;1.40;;;;;;;;;;5136474;27;20053;-81
2023/04/27 13:36:09;;;;;;;2.33;1.50;;;;;;;;;;5136755;27;20106;-81
2023/04/27 13:38:35;;;;;;;2.90;1.30;;;;;;;;;;5136371;27;20493;-81
2023/04/27 13:41:00;;;;;;;1.58;1.27;;;;;;;;;;5118817;27;20022;-80
2023/04/27 13:43:26;;;;;;;1.67;1.30;;;;;;;;;;5136474;27;20079;-81
2023/04/27 13:45:53;;;;;;;2.05;1.60;;;;;;;;;;5118676;27;20088;-81
2023/04/27 13:48:19;;;;;;;3.40;1.30;;;;;;;;;;5136099;27;20052;-81
2023/04/27 13:50:45;;;;;;;1.40;1.15;;;;;;;;;;5136084;27;20031;-82
2023/04/27 13:53:11;;;;;;;1.85;1.40;;;;;;;;;;5136861;27;20541;-81
2023/04/27 13:55:36;;;;;;;3.10;1.25;;;;;;;;;;5140030;27;20042;-81
2023/04/27 13:58:02;;;;;;;3.40;1.58;;;;;;;;;;5158506;27;20071;-81
2023/04/27 14:00:32;;;;;;;1.63;1.30;;;;;;;;;;5123298;27;20034;-83
2023/04/27 14:02:57;;;;;;;2.38;1.30;;;;;;;;;;5158471;27;20026;-81
2023/04/27 14:05:22;;;;;;;1.55;1.30;;;;;;;;;;5139799;27;20027;-82
2023/04/27 14:07:48;;;;;;;1.42;1.20;;;;;;;;;;5158382;27;20033;-83
2023/04/27 14:10:14;;;;;;;1.42;1.30;;;;;;;;;;5158548;27;20034;-82
2023/04/27 14:12:39;;;;;;;3.33;1.38;;;;;;;;;;5158788;27;20083;-82
2023/04/27 14:15:05;;;;;;;2.65;1.58;;;;;;;;;;5158769;27;20026;-82
2023/04/27 14:17:31;;;;;;;2.72;1.20;;;;;;;;;;5122696;27;20453;-82
2023/04/27 14:19:56;;;;;;;2.38;1.15;;;;;;;;;;5158106;27;20027;-81
2023/04/27 14:22:22;;;;;;;2.08;1.48;;;;;;;;;;5139713;27;20030;-82
2023/04/27 14:24:47;;;;;;;2.60;1.40;;;;;;;;;;5122250;27;20038;-82
2023/04/27 14:27:14;;;;;;;1.92;1.27;;;;;;;;;;5139477;27;20404;-82
2023/04/27 14:29:39;;;;;;;3.05;1.40;;;;;;;;;;5122364;27;20075;-81
2023/04/27 14:32:05;;;;;;;2.53;1.30;;;;;;;;;;5157957;27;20022;-82
2023/04/27 14:34:30;;;;;;;1.83;1.60;;;;;;;;;;5139768;27;20038;-83
2023/04/27 14:36:56;;;;;;;2.65;1.55;;;;;;;;;;5139263;27;20042;-82